Kendall Tamiami Executive Airport
KTMB : now visible

Airfield :











YOU CAN JOIN US ON...

 
LOGIN :

Register | Disclaimer

   EN    FR    IT 

 









Legend :    VFR   Marginal VFR   IFR   Intensive IFR   Very Intensive IFR
Visi :
Ceiling :
>= 8 km
>= 3000ft
5 to 8 km
1000 to 3000 ft
1500m to 5 km
500 to 1000 ft
800 to 1500m
200 to 500 ft
< 800m
< 200 ft
Symbols :   Thunderstorms  Fog  Heavy snow  Heavy precipitations  Wind > 20 kt






- Airport Elevation : 8 ft


KTMB - Kendall Tamiami Executive

CURRENT METAR :
  • 250330Z AUTO 03006KT 10SM -RA FEW021 SCT028 BKN065 24/22 A3011 RMK AO2 LTG DSNT N RAB17 P0013 T02440222

EXPIRED METARs :
  • 250323Z AUTO 01006KT 3SM RA BR BKN026 BKN041 BKN120 24/22 A3011 RMK AO2 RAB17 P0013 T02440222
  • 250253Z 35005KT 10SM BKN110 25/22 A3010 RMK AO2 LTG DSNT N AND NE RAE29 TSB07E33 SLP193 LAST P0011 60011 T02500222 53018
  • 250239Z 02006KT 10SM VCTS FEW019 SCT065 BKN120 26/22 A3010 RMK AO2 LTG DSNT NW-E RAE29 TSB07E33 LAST P0011 T02560217
  • 250229Z 06005KT 10SM TS SCT021 BKN065 BKN095 25/22 A3009 RMK AO2 LTG DSNT NE AND E RAE29 TSB07 LAST P0011 T02500217
  • 250213Z VRB05KT 5SM +TSRA OVC021 26/22 A3009 RMK AO2 LTG DSNT E TSB07 P0011 T02610222
  • 250206Z 19006KT 10SM VCTS -RA BKN022 BKN027 OVC033 26/22 A3009 RMK AO2 LTG DSNT NE P0000 T02610222
  • 250153Z 16009KT 10SM -RA BKN020 BKN031 27/22 A3008 RMK AO2 LTG DSNT NE AND E RAB41 SLP185 P0000 T02670222
  • 250053Z 07007KT 10SM CLR 28/23 A3006 RMK AO2 SLP178 T02780228

TAF KTMB
Valid from the 25 at 03:00 until the 26 at 00:00 UTC


250328Z 2503/2524 10005KT P6SM VCSH SCT025 BKN050
TEMPO 2503/2504 3SM SHRA BKN025
FM251200 11010KT P6SM VCTS SCT025CB BKN050
FM251500 11012KT P6SM VCSH SCT030 BKN050
KZMA FIR / North America



MET'MAP, your aeronautical weather chart ! - Copyright ORBIFLY December 2007 - Disclaimer

ORBIFLY MET'MAP TEAM :

Programming & Development : Alexandra Zaïnal
Concept & original design : Baudouin d'Aumeries
Assistance for programming : Marc-Olivier Méhu
Technical & hardware support : Manuel Goepfert

Contact : metmap@orbifly.com




SOURCES & CREDITS :

   NOAA       Earth
Advisory